PWSweather.com
Personal Weather Stations
Station Observations
265NC
Va2kh, Stcasimir, QC G0A 3L0

Va2khStcasimir, QC G0A 3L0

Lat: 46.65839, Lon: -72.13905

Elevation: 105

Station Type: National Geographic 265NC

http://www.qsl.net/va2kh

High Low Average
Temperature 52.7°F11.5°F 27.7°F-2.4°F 41.3°F5.2°F
Dew Point 33.0°F0.6°F 23.9°F-4.5°F 28.0°F-2.2°F
Winds 4.7 mph E7.6 mph E Calm Calm 1.2 mph 1.9 mph
Wind Gusts 10.7 mph17.2 mph -- 5.0 mph8.0 mph
Humidity 87% 36% 61%
Pressure 30.11 in1019.60 in 29.86 in1011.20 in -
Precipitation 0.00 in0.00 in - -
Hour Temp Dew Point Humidity Winds Wind Gusts Pressure Precip Precip Rate Daily Precip Total
12:00 AM 40.6°F4.8°C 27.4°F-2.6°C 59% 0.9 mph ENE1.4 kmh ENE 4.5 mph7.2 kmh 29.89 in1012.2 mb 0.00 in0.0 mm 0.00 in0.0 mm 0.00 in0.0 mm
12:15 AM 39.0°F3.9°C 27.9°F-2.3°C 64% 1.7 mph ENE2.7 kmh ENE 5.4 mph8.7 kmh 29.90 in1012.5 mb 0.00 in0.0 mm 0.00 in0.0 mm 0.00 in0.0 mm
12:30 AM 38.5°F3.6°C 27.4°F-2.6°C 64% 0.4 mph E0.6 kmh E 3.1 mph5.0 kmh 29.91 in1012.9 mb 0.00 in0.0 mm 0.00 in0.0 mm 0.00 in0.0 mm
12:45 AM 38.8°F3.8°C 28.1°F-2.2°C 65% 1.2 mph NE1.9 kmh NE 6.0 mph9.7 kmh 29.91 in1012.9 mb 0.00 in0.0 mm 0.00 in0.0 mm 0.00 in0.0 mm
01:00 AM 38.1°F3.4°C 27.0°F-2.8°C 64% 0.3 mph NE0.5 kmh NE 3.1 mph5.0 kmh 29.93 in1013.5 mb 0.00 in0.0 mm 0.00 in0.0 mm 0.00 in0.0 mm
01:15 AM 37.6°F3.1°C 27.3°F-2.6°C 66% 0.9 mph NE1.4 kmh NE 6.0 mph9.7 kmh 29.93 in1013.5 mb 0.00 in0.0 mm 0.00 in0.0 mm 0.00 in0.0 mm
01:30 AM 37.2°F2.9°C 26.9°F-2.8°C 66% 1.0 mph E1.6 kmh E 3.8 mph6.1 kmh 29.93 in1013.5 mb 0.00 in0.0 mm 0.00 in0.0 mm 0.00 in0.0 mm
01:45 AM 35.8°F2.1°C 25.6°F-3.6°C 66% Calm Calm -- 29.93 in1013.5 mb 0.00 in0.0 mm 0.00 in0.0 mm 0.00 in0.0 mm
02:00 AM 35.8°F2.1°C 26.6°F-3.0°C 69% 1.1 mph ENE1.8 kmh ENE 5.4 mph8.7 kmh 29.93 in1013.5 mb 0.00 in0.0 mm 0.00 in0.0 mm 0.00 in0.0 mm
02:15 AM 35.2°F1.8°C 26.5°F-3.1°C 70% 0.9 mph NNE1.4 kmh NNE 3.8 mph6.1 kmh 29.93 in1013.5 mb 0.00 in0.0 mm 0.00 in0.0 mm 0.00 in0.0 mm
02:30 AM 35.4°F1.9°C 27.0°F-2.8°C 71% 2.6 mph NNE4.2 kmh NNE 6.0 mph9.7 kmh 29.92 in1013.2 mb 0.00 in0.0 mm 0.00 in0.0 mm 0.00 in0.0 mm
02:45 AM 35.2°F1.8°C 26.5°F-3.1°C 70% 2.2 mph NNE3.5 kmh NNE 7.6 mph12.2 kmh 29.92 in1013.2 mb 0.00 in0.0 mm 0.00 in0.0 mm 0.00 in0.0 mm
03:00 AM 34.9°F1.6°C 26.1°F-3.3°C 70% 2.3 mph NNE3.7 kmh NNE 8.3 mph13.4 kmh 29.92 in1013.2 mb 0.00 in0.0 mm 0.00 in0.0 mm 0.00 in0.0 mm
03:15 AM 34.2°F1.2°C 25.4°F-3.7°C 70% 0.4 mph ENE0.6 kmh ENE 4.5 mph7.2 kmh 29.93 in1013.5 mb 0.00 in0.0 mm 0.00 in0.0 mm 0.00 in0.0 mm
03:30 AM 32.7°F0.4°C 24.7°F-4.1°C 72% Calm Calm -- 29.93 in1013.5 mb 0.00 in0.0 mm 0.00 in0.0 mm 0.00 in0.0 mm
03:45 AM 32.5°F0.3°C 25.2°F-3.8°C 74% 0.4 mph E0.6 kmh E 3.8 mph6.1 kmh 29.93 in1013.5 mb 0.00 in0.0 mm 0.00 in0.0 mm 0.00 in0.0 mm
04:00 AM 31.8°F-0.1°C 24.8°F-4.0°C 75% Calm Calm -- 29.93 in1013.5 mb 0.00 in0.0 mm 0.00 in0.0 mm 0.00 in0.0 mm
04:15 AM 30.4°F-0.9°C 24.4°F-4.2°C 78% 0.1 mph NW0.2 kmh NW 1.6 mph2.6 kmh 29.93 in1013.5 mb 0.00 in0.0 mm 0.00 in0.0 mm 0.00 in0.0 mm
04:30 AM 29.7°F-1.3°C 24.0°F-4.4°C 79% Calm Calm 0.7 mph1.1 kmh 29.93 in1013.5 mb 0.00 in0.0 mm 0.00 in0.0 mm 0.00 in0.0 mm
04:45 AM 29.1°F-1.6°C 24.0°F-4.4°C 81% 0.2 mph E0.3 kmh E 2.2 mph3.5 kmh 29.93 in1013.5 mb 0.00 in0.0 mm 0.00 in0.0 mm 0.00 in0.0 mm
05:00 AM 29.8°F-1.2°C 25.3°F-3.7°C 83% 0.2 mph NE0.3 kmh NE 3.1 mph5.0 kmh 29.94 in1013.9 mb 0.00 in0.0 mm 0.00 in0.0 mm 0.00 in0.0 mm
05:15 AM 30.0°F-1.1°C 25.5°F-3.6°C 83% 0.1 mph NE0.2 kmh NE 1.6 mph2.6 kmh 29.93 in1013.5 mb 0.00 in0.0 mm 0.00 in0.0 mm 0.00 in0.0 mm
05:30 AM 28.9°F-1.7°C 24.4°F-4.2°C 83% Calm Calm 0.7 mph1.1 kmh 29.93 in1013.5 mb 0.00 in0.0 mm 0.00 in0.0 mm 0.00 in0.0 mm
05:45 AM 28.0°F-2.2°C 23.9°F-4.5°C 84% Calm Calm -- 29.94 in1013.9 mb 0.00 in0.0 mm 0.00 in0.0 mm 0.00 in0.0 mm
06:00 AM 27.7°F-2.4°C 24.1°F-4.4°C 86% 0.2 mph NNE0.3 kmh NNE 2.2 mph3.5 kmh 29.93 in1013.5 mb 0.00 in0.0 mm 0.00 in0.0 mm 0.00 in0.0 mm
06:15 AM 29.3°F-1.5°C 25.9°F-3.4°C 87% 0.7 mph NE1.1 kmh NE 3.8 mph6.1 kmh 29.93 in1013.5 mb 0.00 in0.0 mm 0.00 in0.0 mm 0.00 in0.0 mm
06:30 AM 29.1°F-1.6°C 25.5°F-3.6°C 86% Calm Calm 3.1 mph5.0 kmh 29.93 in1013.5 mb 0.00 in0.0 mm 0.00 in0.0 mm 0.00 in0.0 mm
06:45 AM 29.5°F-1.4°C 25.8°F-3.4°C 86% Calm Calm 1.6 mph2.6 kmh 29.93 in1013.5 mb 0.00 in0.0 mm 0.00 in0.0 mm 0.00 in0.0 mm
07:00 AM 30.4°F-0.9°C 26.7°F-2.9°C 86% Calm Calm 1.6 mph2.6 kmh 29.93 in1013.5 mb 0.00 in0.0 mm 0.00 in0.0 mm 0.00 in0.0 mm
07:15 AM 32.2°F0.1°C 27.6°F-2.4°C 83% 0.6 mph NE1.0 kmh NE 3.1 mph5.0 kmh 29.93 in1013.5 mb 0.00 in0.0 mm 0.00 in0.0 mm 0.00 in0.0 mm
07:30 AM 33.6°F0.9°C 28.4°F-2.0°C 81% 0.1 mph NE0.2 kmh NE 2.2 mph3.5 kmh 29.93 in1013.5 mb 0.00 in0.0 mm 0.00 in0.0 mm 0.00 in0.0 mm
07:45 AM 35.1°F1.7°C 28.3°F-2.1°C 76% 1.6 mph ESE2.6 kmh ESE 6.0 mph9.7 kmh 29.93 in1013.5 mb 0.00 in0.0 mm 0.00 in0.0 mm 0.00 in0.0 mm
08:00 AM 36.1°F2.3°C 28.0°F-2.2°C 72% 1.9 mph E3.1 kmh E 6.0 mph9.7 kmh 29.94 in1013.9 mb 0.00 in0.0 mm 0.00 in0.0 mm 0.00 in0.0 mm
08:15 AM 37.4°F3.0°C 27.8°F-2.3°C 68% 2.6 mph E4.2 kmh E 5.4 mph8.7 kmh 29.93 in1013.5 mb 0.00 in0.0 mm 0.00 in0.0 mm 0.00 in0.0 mm
08:30 AM 38.8°F3.8°C 28.1°F-2.2°C 65% 1.0 mph ESE1.6 kmh ESE 3.8 mph6.1 kmh 29.94 in1013.9 mb 0.00 in0.0 mm 0.00 in0.0 mm 0.00 in0.0 mm
08:45 AM 40.1°F4.5°C 28.1°F-2.2°C 62% 0.9 mph E1.4 kmh E 4.5 mph7.2 kmh 29.94 in1013.9 mb 0.00 in0.0 mm 0.00 in0.0 mm 0.00 in0.0 mm
09:00 AM 41.4°F5.2°C 28.1°F-2.2°C 59% 1.8 mph ESE2.9 kmh ESE 8.3 mph13.4 kmh 29.94 in1013.9 mb 0.00 in0.0 mm 0.00 in0.0 mm 0.00 in0.0 mm
09:15 AM 41.9°F5.5°C 27.8°F-2.3°C 57% 2.5 mph ESE4.0 kmh ESE 9.8 mph15.8 kmh 29.94 in1013.9 mb 0.00 in0.0 mm 0.00 in0.0 mm 0.00 in0.0 mm
09:30 AM 43.0°F6.1°C 28.4°F-2.0°C 56% 1.8 mph E2.9 kmh E 7.6 mph12.2 kmh 29.94 in1013.9 mb 0.00 in0.0 mm 0.00 in0.0 mm 0.00 in0.0 mm
09:45 AM 44.1°F6.7°C 28.5°F-1.9°C 54% 2.3 mph ESE3.7 kmh ESE 6.0 mph9.7 kmh 29.93 in1013.5 mb 0.00 in0.0 mm 0.00 in0.0 mm 0.00 in0.0 mm
10:00 AM 46.0°F7.8°C 28.9°F-1.7°C 51% 1.3 mph ESE2.1 kmh ESE 6.0 mph9.7 kmh 29.93 in1013.5 mb 0.00 in0.0 mm 0.00 in0.0 mm 0.00 in0.0 mm
10:15 AM 47.1°F8.4°C 28.5°F-1.9°C 48% 0.8 mph ESE1.3 kmh ESE 5.4 mph8.7 kmh 29.92 in1013.2 mb 0.00 in0.0 mm 0.00 in0.0 mm 0.00 in0.0 mm
10:30 AM 46.9°F8.3°C 27.8°F-2.3°C 47% 4.1 mph ESE6.6 kmh ESE 9.8 mph15.8 kmh 29.91 in1012.9 mb 0.00 in0.0 mm 0.00 in0.0 mm 0.00 in0.0 mm
10:45 AM 47.1°F8.4°C 28.5°F-1.9°C 48% 2.9 mph ESE4.7 kmh ESE 9.2 mph14.8 kmh 29.91 in1012.9 mb 0.00 in0.0 mm 0.00 in0.0 mm 0.00 in0.0 mm
11:00 AM 47.7°F8.7°C 28.4°F-2.0°C 47% 2.1 mph ESE3.4 kmh ESE 7.6 mph12.2 kmh 29.90 in1012.5 mb 0.00 in0.0 mm 0.00 in0.0 mm 0.00 in0.0 mm
11:15 AM 50.7°F10.4°C 28.5°F-1.9°C 42% 4.1 mph E6.6 kmh E 9.8 mph15.8 kmh 29.89 in1012.2 mb 0.00 in0.0 mm 0.00 in0.0 mm 0.00 in0.0 mm
11:30 AM 52.7°F11.5°C 27.8°F-2.3°C 38% 2.1 mph SE3.4 kmh SE 9.8 mph15.8 kmh 29.89 in1012.2 mb 0.00 in0.0 mm 0.00 in0.0 mm 0.00 in0.0 mm
11:45 AM 52.5°F11.4°C 27.0°F-2.8°C 37% 2.3 mph E3.7 kmh E 8.3 mph13.4 kmh 29.88 in1011.9 mb 0.00 in0.0 mm 0.00 in0.0 mm 0.00 in0.0 mm
12:00 PM 50.9°F10.5°C 26.8°F-2.9°C 39% 1.2 mph E1.9 kmh E 8.3 mph13.4 kmh 29.88 in1011.9 mb 0.00 in0.0 mm 0.00 in0.0 mm 0.00 in0.0 mm
12:15 PM 50.7°F10.4°C 26.7°F-2.9°C 39% 3.9 mph ESE6.3 kmh ESE 9.8 mph15.8 kmh 29.86 in1011.2 mb 0.00 in0.0 mm 0.00 in0.0 mm 0.00 in0.0 mm
12:30 PM 50.5°F10.3°C 27.1°F-2.7°C 40% 1.1 mph E1.8 kmh E 8.3 mph13.4 kmh 29.87 in1011.5 mb 0.00 in0.0 mm 0.00 in0.0 mm 0.00 in0.0 mm
12:45 PM 50.5°F10.3°C 25.3°F-3.7°C 37% 1.8 mph SE2.9 kmh SE 6.0 mph9.7 kmh 29.87 in1011.5 mb 0.00 in0.0 mm 0.00 in0.0 mm 0.00 in0.0 mm
01:00 PM 49.8°F9.9°C 24.0°F-4.4°C 36% 2.4 mph E3.9 kmh E 5.4 mph8.7 kmh 29.86 in1011.2 mb 0.00 in0.0 mm 0.00 in0.0 mm 0.00 in0.0 mm
01:15 PM 50.4°F10.2°C 25.1°F-3.8°C 37% 1.1 mph SE1.8 kmh SE 5.4 mph8.7 kmh 29.87 in1011.5 mb 0.00 in0.0 mm 0.00 in0.0 mm 0.00 in0.0 mm
01:30 PM 50.0°F10.0°C 24.8°F-4.0°C 37% 0.4 mph E0.6 kmh E 3.1 mph5.0 kmh 29.87 in1011.5 mb 0.00 in0.0 mm 0.00 in0.0 mm 0.00 in0.0 mm
01:45 PM 49.8°F9.9°C 25.2°F-3.8°C 38% 1.0 mph ENE1.6 kmh ENE 5.4 mph8.7 kmh 29.87 in1011.5 mb 0.00 in0.0 mm 0.00 in0.0 mm 0.00 in0.0 mm
02:00 PM 49.3°F9.6°C 24.8°F-4.0°C 38% 0.1 mph ENE0.2 kmh ENE 2.2 mph3.5 kmh 29.88 in1011.9 mb 0.00 in0.0 mm 0.00 in0.0 mm 0.00 in0.0 mm
02:15 PM 49.1°F9.5°C 25.2°F-3.8°C 39% 0.1 mph NNE0.2 kmh NNE 3.1 mph5.0 kmh 29.88 in1011.9 mb 0.00 in0.0 mm 0.00 in0.0 mm 0.00 in0.0 mm
02:30 PM 49.3°F9.6°C 26.6°F-3.0°C 41% 0.3 mph N0.5 kmh N 3.1 mph5.0 kmh 29.87 in1011.5 mb 0.00 in0.0 mm 0.00 in0.0 mm 0.00 in0.0 mm
02:45 PM 51.6°F10.9°C 27.5°F-2.5°C 39% 0.6 mph NE1.0 kmh NE 3.8 mph6.1 kmh 29.87 in1011.5 mb 0.00 in0.0 mm 0.00 in0.0 mm 0.00 in0.0 mm
03:00 PM 51.3°F10.7°C 27.2°F-2.7°C 39% 1.3 mph ENE2.1 kmh ENE 4.5 mph7.2 kmh 29.87 in1011.5 mb 0.00 in0.0 mm 0.00 in0.0 mm 0.00 in0.0 mm
03:15 PM 51.3°F10.7°C 27.2°F-2.7°C 39% 1.3 mph NE2.1 kmh NE 4.5 mph7.2 kmh 29.87 in1011.5 mb 0.00 in0.0 mm 0.00 in0.0 mm 0.00 in0.0 mm
03:30 PM 52.2°F11.2°C 26.7°F-2.9°C 37% 0.8 mph ENE1.3 kmh ENE 4.5 mph7.2 kmh 29.87 in1011.5 mb 0.00 in0.0 mm 0.00 in0.0 mm 0.00 in0.0 mm
04:00 PM 49.8°F9.9°C 25.2°F-3.8°C 38% 0.8 mph NNE1.3 kmh NNE 3.8 mph6.1 kmh 29.89 in1012.2 mb 0.00 in0.0 mm 0.00 in0.0 mm 0.00 in0.0 mm
04:15 PM 49.5°F9.7°C 25.5°F-3.6°C 39% 0.3 mph NW0.5 kmh NW 3.1 mph5.0 kmh 29.89 in1012.2 mb 0.00 in0.0 mm 0.00 in0.0 mm 0.00 in0.0 mm
04:30 PM 48.4°F9.1°C 26.4°F-3.1°C 42% 1.4 mph NW2.3 kmh NW 7.6 mph12.2 kmh 29.89 in1012.2 mb 0.00 in0.0 mm 0.00 in0.0 mm 0.00 in0.0 mm
04:45 PM 48.6°F9.2°C 27.1°F-2.7°C 43% 0.6 mph W1.0 kmh W 4.5 mph7.2 kmh 29.90 in1012.5 mb 0.00 in0.0 mm 0.00 in0.0 mm 0.00 in0.0 mm
05:00 PM 48.0°F8.9°C 26.0°F-3.3°C 42% 0.6 mph NW1.0 kmh NW 4.5 mph7.2 kmh 29.91 in1012.9 mb 0.00 in0.0 mm 0.00 in0.0 mm 0.00 in0.0 mm
05:15 PM 48.4°F9.1°C 26.9°F-2.8°C 43% 2.0 mph ENE3.2 kmh ENE 6.9 mph11.1 kmh 29.91 in1012.9 mb 0.00 in0.0 mm 0.00 in0.0 mm 0.00 in0.0 mm
05:30 PM 48.9°F9.4°C 29.6°F-1.3°C 47% 1.2 mph SE1.9 kmh SE 5.4 mph8.7 kmh 29.92 in1013.2 mb 0.00 in0.0 mm 0.00 in0.0 mm 0.00 in0.0 mm
05:45 PM 48.2°F9.0°C 28.4°F-2.0°C 46% 1.3 mph E2.1 kmh E 3.8 mph6.1 kmh 29.93 in1013.5 mb 0.00 in0.0 mm 0.00 in0.0 mm 0.00 in0.0 mm
06:00 PM 47.1°F8.4°C 28.5°F-1.9°C 48% 2.8 mph E4.5 kmh E 7.6 mph12.2 kmh 29.93 in1013.5 mb 0.00 in0.0 mm 0.00 in0.0 mm 0.00 in0.0 mm
06:15 PM 46.4°F8.0°C 30.2°F-1.0°C 53% 4.4 mph E7.1 kmh E 10.7 mph17.2 kmh 29.94 in1013.9 mb 0.00 in0.0 mm 0.00 in0.0 mm 0.00 in0.0 mm
06:30 PM 45.3°F7.4°C 30.6°F-0.8°C 56% 4.4 mph E7.1 kmh E 9.8 mph15.8 kmh 29.95 in1014.2 mb 0.00 in0.0 mm 0.00 in0.0 mm 0.00 in0.0 mm
06:45 PM 44.2°F6.8°C 31.2°F-0.4°C 60% 4.7 mph E7.6 kmh E 9.2 mph14.8 kmh 29.96 in1014.6 mb 0.00 in0.0 mm 0.00 in0.0 mm 0.00 in0.0 mm
07:00 PM 43.5°F6.4°C 32.2°F0.1°C 64% 3.8 mph E6.1 kmh E 9.8 mph15.8 kmh 29.97 in1014.9 mb 0.00 in0.0 mm 0.00 in0.0 mm 0.00 in0.0 mm
07:15 PM 43.0°F6.1°C 32.4°F0.2°C 66% 2.2 mph NE3.5 kmh NE 9.2 mph14.8 kmh 29.99 in1015.6 mb 0.00 in0.0 mm 0.00 in0.0 mm 0.00 in0.0 mm
07:30 PM 42.3°F5.7°C 32.8°F0.4°C 69% 1.9 mph E3.1 kmh E 6.0 mph9.7 kmh 29.99 in1015.6 mb 0.00 in0.0 mm 0.00 in0.0 mm 0.00 in0.0 mm
07:45 PM 41.7°F5.4°C 32.3°F0.2°C 69% 0.8 mph E1.3 kmh E 4.5 mph7.2 kmh 30.01 in1016.3 mb 0.00 in0.0 mm 0.00 in0.0 mm 0.00 in0.0 mm
08:00 PM 41.2°F5.1°C 32.5°F0.3°C 71% 0.6 mph ENE1.0 kmh ENE 3.1 mph5.0 kmh 30.01 in1016.3 mb 0.00 in0.0 mm 0.00 in0.0 mm 0.00 in0.0 mm
08:15 PM 40.5°F4.7°C 32.2°F0.1°C 72% 0.2 mph E0.3 kmh E 2.2 mph3.5 kmh 30.02 in1016.6 mb 0.00 in0.0 mm 0.00 in0.0 mm 0.00 in0.0 mm
08:30 PM 40.5°F4.7°C 32.5°F0.3°C 73% 0.4 mph NE0.6 kmh NE 3.1 mph5.0 kmh 30.03 in1016.9 mb 0.00 in0.0 mm 0.00 in0.0 mm 0.00 in0.0 mm
08:45 PM 40.6°F4.8°C 32.7°F0.4°C 73% 0.2 mph NE0.3 kmh NE 3.1 mph5.0 kmh 30.04 in1017.3 mb 0.00 in0.0 mm 0.00 in0.0 mm 0.00 in0.0 mm
09:00 PM 40.6°F4.8°C 32.7°F0.4°C 73% 0.4 mph NNE0.6 kmh NNE 3.8 mph6.1 kmh 30.05 in1017.6 mb 0.00 in0.0 mm 0.00 in0.0 mm 0.00 in0.0 mm
09:15 PM 40.3°F4.6°C 32.3°F0.2°C 73% 0.2 mph N0.3 kmh N 3.1 mph5.0 kmh 30.06 in1017.9 mb 0.00 in0.0 mm 0.00 in0.0 mm 0.00 in0.0 mm
09:30 PM 40.5°F4.7°C 32.5°F0.3°C 73% 1.0 mph N1.6 kmh N 3.8 mph6.1 kmh 30.07 in1018.3 mb 0.00 in0.0 mm 0.00 in0.0 mm 0.00 in0.0 mm
09:45 PM 40.5°F4.7°C 32.5°F0.3°C 73% 0.2 mph N0.3 kmh N 3.1 mph5.0 kmh 30.07 in1018.3 mb 0.00 in0.0 mm 0.00 in0.0 mm 0.00 in0.0 mm
10:00 PM 40.1°F4.5°C 32.2°F0.1°C 73% 0.1 mph NNW0.2 kmh NNW 2.2 mph3.5 kmh 30.07 in1018.3 mb 0.00 in0.0 mm 0.00 in0.0 mm 0.00 in0.0 mm
10:15 PM 39.7°F4.3°C 32.5°F0.3°C 75% 0.1 mph NNW0.2 kmh NNW 3.8 mph6.1 kmh 30.07 in1018.3 mb 0.00 in0.0 mm 0.00 in0.0 mm 0.00 in0.0 mm
10:30 PM 39.6°F4.2°C 32.6°F0.3°C 76% 0.5 mph NW0.8 kmh NW 3.8 mph6.1 kmh 30.08 in1018.6 mb 0.00 in0.0 mm 0.00 in0.0 mm 0.00 in0.0 mm
10:45 PM 39.4°F4.1°C 32.8°F0.4°C 77% 0.6 mph NW1.0 kmh NW 4.5 mph7.2 kmh 30.09 in1019.0 mb 0.00 in0.0 mm 0.00 in0.0 mm 0.00 in0.0 mm
11:00 PM 39.6°F4.2°C 33.0°F0.6°C 77% 1.5 mph N2.4 kmh N 8.3 mph13.4 kmh 30.09 in1019.0 mb 0.00 in0.0 mm 0.00 in0.0 mm 0.00 in0.0 mm
11:15 PM 39.6°F4.2°C 33.0°F0.6°C 77% 1.5 mph N2.4 kmh N 5.4 mph8.7 kmh 30.10 in1019.3 mb 0.00 in0.0 mm 0.00 in0.0 mm 0.00 in0.0 mm
11:30 PM 39.2°F4.0°C 32.6°F0.3°C 77% 3.0 mph NNE4.8 kmh NNE 10.7 mph17.2 kmh 30.10 in1019.3 mb 0.00 in0.0 mm 0.00 in0.0 mm 0.00 in0.0 mm
11:45 PM 39.0°F3.9°C 32.1°F0.1°C 76% 2.0 mph NW3.2 kmh NW 6.0 mph9.7 kmh 30.11 in1019.6 mb 0.00 in0.0 mm 0.00 in0.0 mm 0.00 in0.0 mm